Time;durP1;ratioP1;P1;durP2;ratioP2;P2;SDS_P1;SDS_P2;PMS_P1;PMS_P2;Temp;Humidity;BMP_temperature;BMP_pressure;BME280_temperature;BME280_humidity;BME280_pressure;Samples;Min_cycle;Max_cycle;Signal;HPM_P1;HPM_P2
2023/09/18 00:01:04;;;;;;;1.10;1.10;;;16.90;99.90;;;;;;6223264;23;20401;-81
2023/09/18 00:03:31;;;;;;;2.80;2.60;;;16.90;99.90;;;;;;6219824;23;20444;-87
2023/09/18 00:05:58;;;;;;;1.80;1.70;;;16.90;99.90;;;;;;6194833;23;20726;-79
2023/09/18 00:08:26;;;;;;;1.43;1.33;;;16.90;99.90;;;;;;6223467;23;20429;-86
2023/09/18 00:10:54;;;;;;;2.87;2.67;;;16.90;99.90;;;;;;6225983;23;20714;-89
2023/09/18 00:13:23;;;;;;;4.00;3.70;;;16.90;99.90;;;;;;6199848;23;20433;-80
2023/09/18 00:15:55;;;;;;;1.37;1.33;;;16.70;99.90;;;;;;6226586;23;20397;-83
2023/09/18 00:18:25;;;;;;;2.63;1.97;;;16.80;99.90;;;;;;6226013;23;20378;-84
2023/09/18 00:20:52;;;;;;;1.53;1.23;;;16.80;99.90;;;;;;6234163;23;20393;-84
2023/09/18 00:23:19;;;;;;;1.00;1.00;;;16.80;99.90;;;;;;6243081;23;20434;-83
2023/09/18 00:25:46;;;;;;;3.63;2.73;;;16.70;99.90;;;;;;6204838;23;20625;-79
2023/09/18 00:28:15;;;;;;;1.77;1.67;;;16.70;99.90;;;;;;6226857;23;20389;-89
2023/09/18 00:30:51;;;;;;;0.60;0.60;;;16.80;99.90;;;;;;6202823;23;20384;-87
2023/09/18 00:33:20;;;;;;;2.43;2.33;;;17.00;99.90;;;;;;6227789;23;20621;-85
2023/09/18 00:35:49;;;;;;;1.30;1.20;;;16.80;99.90;;;;;;6199022;23;20637;-85
2023/09/18 00:38:16;;;;;;;1.77;1.67;;;16.80;99.90;;;;;;6226103;23;20482;-85
2023/09/18 00:40:44;;;;;;;1.37;1.27;;;16.70;99.90;;;;;;6120141;23;1474801;-87
2023/09/18 00:43:11;;;;;;;0.97;0.97;;;16.70;99.90;;;;;;6170925;23;20220;-82
2023/09/18 00:45:47;;;;;;;1.37;1.27;;;16.60;99.90;;;;;;6171532;23;20395;-84
2023/09/18 00:48:16;;;;;;;1.27;1.17;;;16.50;99.90;;;;;;6170812;23;20405;-79
2023/09/18 00:50:48;;;;;;;2.87;2.70;;;16.60;99.90;;;;;;6197969;23;20482;-80
2023/09/18 00:53:19;;;;;;;2.10;2.00;;;16.60;99.90;;;;;;6199302;23;20577;-86
2023/09/18 00:55:47;;;;;;;1.80;1.70;;;16.70;99.90;;;;;;6194609;23;20373;-79
2023/09/18 00:58:15;;;;;;;2.53;2.00;;;16.60;99.90;;;;;;6195036;23;20445;-80
2023/09/18 01:00:43;;;;;;;1.93;1.80;;;16.60;99.90;;;;;;6170162;23;20391;-87
2023/09/18 01:03:11;;;;;;;0.63;0.63;;;16.40;99.90;;;;;;6194624;23;20391;-84
2023/09/18 01:05:38;;;;;;;0.87;0.87;;;16.40;99.90;;;;;;6194346;23;20727;-79
2023/09/18 01:08:08;;;;;;;1.67;1.67;;;16.40;99.90;;;;;;6170054;23;20372;-81
2023/09/18 01:10:48;;;;;;;5.30;3.20;;;16.40;99.90;;;;;;6193569;23;20778;-86
2023/09/18 01:13:28;;;;;;;0.60;0.60;;;16.40;99.90;;;;;;6194981;23;20379;-85
2023/09/18 01:16:04;;;;;;;0.87;0.87;;;16.20;99.90;;;;;;6196337;23;20565;-88
2023/09/18 01:18:30;;;;;;;1.00;1.00;;;16.40;99.90;;;;;;6197313;23;20437;-83
2023/09/18 01:23:28;;;;;;;2.50;2.10;;;16.40;99.90;;;;;;6166728;23;20442;-87
2023/09/18 01:25:55;;;;;;;0.70;0.70;;;16.40;99.90;;;;;;6165559;23;20404;-88
2023/09/18 01:28:23;;;;;;;1.90;1.80;;;16.30;99.90;;;;;;6113851;23;20759;-81
2023/09/18 01:30:50;;;;;;;0.90;0.90;;;16.40;99.90;;;;;;6164851;23;20392;-82
2023/09/18 01:33:18;;;;;;;3.00;2.80;;;16.40;99.90;;;;;;6164622;23;20396;-84
2023/09/18 01:35:54;;;;;;;1.67;1.57;;;16.40;99.90;;;;;;6164854;23;20376;-82
2023/09/18 01:38:25;;;;;;;0.80;0.80;;;16.30;99.90;;;;;;6165834;23;20428;-82
2023/09/18 01:40:54;;;;;;;3.47;2.30;;;16.30;99.90;;;;;;6139613;23;20696;-78
2023/09/18 01:43:21;;;;;;;1.13;1.13;;;16.40;99.90;;;;;;6165269;23;20450;-84
2023/09/18 01:45:49;;;;;;;10.03;1.90;;;16.30;99.90;;;;;;6166974;23;20439;-79
2023/09/18 01:48:16;;;;;;;2.60;2.50;;;16.30;99.90;;;;;;6166383;23;20366;-80
2023/09/18 01:50:46;;;;;;;1.00;1.00;;;16.20;99.90;;;;;;6166121;23;20431;-82
2023/09/18 01:53:13;;;;;;;2.00;1.63;;;16.20;99.90;;;;;;6167054;23;20395;-87
2023/09/18 01:55:40;;;;;;;2.70;2.50;;;16.20;99.90;;;;;;6168105;23;20443;-88
2023/09/18 01:58:08;;;;;;;0.80;0.80;;;16.20;99.90;;;;;;6168880;23;20400;-89
2023/09/18 02:00:37;;;;;;;1.73;1.63;;;16.10;99.90;;;;;;6141826;23;20399;-80
2023/09/18 02:03:05;;;;;;;2.67;2.47;;;16.20;99.90;;;;;;6170536;23;20431;-87
2023/09/18 02:05:48;;;;;;;1.10;1.10;;;16.10;99.90;;;;;;6166773;23;20725;-90
2023/09/18 02:08:15;;;;;;;1.67;1.57;;;16.10;99.90;;;;;;6167387;23;20443;-83
2023/09/18 02:10:44;;;;;;;2.83;2.63;;;16.00;99.90;;;;;;6133787;23;20509;-83
2023/09/18 02:13:10;;;;;;;0.50;0.50;;;15.90;99.90;;;;;;6206611;22;20463;-87
2023/09/18 02:15:38;;;;;;;2.00;1.90;;;16.20;99.90;;;;;;6173335;22;20511;-87
2023/09/18 02:18:05;;;;;;;1.10;1.10;;;16.00;99.90;;;;;;6224004;22;20514;-86
2023/09/18 02:23:03;;;;;;;1.40;1.40;;;16.00;99.90;;;;;;6166936;23;20403;-86
2023/09/18 02:28:01;;;;;;;1.60;1.50;;;15.90;99.90;;;;;;6168138;23;20649;-87
2023/09/18 02:33:10;;;;;;;2.33;2.13;;;15.80;99.90;;;;;;6170763;22;20464;-86
2023/09/18 02:35:38;;;;;;;1.50;1.47;;;15.80;99.90;;;;;;6197551;22;20761;-86
2023/09/18 02:40:49;;;;;;;1.37;1.30;;;15.80;99.90;;;;;;6198595;22;20808;-87
2023/09/18 02:45:58;;;;;;;0.90;0.90;;;15.90;99.90;;;;;;6191527;22;20449;-89
2023/09/18 02:48:25;;;;;;;6.17;2.20;;;15.80;99.90;;;;;;6197382;22;20473;-85
2023/09/18 02:50:53;;;;;;;0.70;0.70;;;15.80;99.90;;;;;;6217462;22;20446;-83
2023/09/18 02:53:24;;;;;;;2.43;2.30;;;15.80;99.90;;;;;;6229732;22;20417;-81
2023/09/18 02:55:53;;;;;;;0.70;0.70;;;15.80;99.90;;;;;;6197347;22;20482;-87
2023/09/18 03:00:55;;;;;;;5.70;2.60;;;15.70;99.90;;;;;;6185992;23;20414;-85
2023/09/18 03:03:22;;;;;;;3.13;2.90;;;15.70;99.90;;;;;;6215183;22;20406;-81
2023/09/18 03:05:52;;;;;;;2.73;2.60;;;15.70;99.90;;;;;;6213452;23;20394;-89
2023/09/18 03:08:23;;;;;;;1.77;1.27;;;15.70;99.90;;;;;;6211377;22;20432;-80
2023/09/18 03:13:42;;;;;;;1.63;1.53;;;15.60;99.90;;;;;;6199663;22;20524;-85
2023/09/18 03:16:11;;;;;;;3.37;3.10;;;15.60;99.90;;;;;;6231650;23;20397;-81
2023/09/18 03:18:39;;;;;;;1.70;1.60;;;15.60;99.90;;;;;;6226709;23;20394;-82
2023/09/18 03:21:05;;;;;;;3.60;3.40;;;15.60;99.90;;;;;;6229876;22;20460;-86
2023/09/18 03:23:32;;;;;;;1.80;1.70;;;15.50;99.90;;;;;;6212345;22;20433;-83
2023/09/18 03:26:01;;;;;;;1.50;1.40;;;15.70;99.90;;;;;;6219336;22;20445;-85
2023/09/18 03:28:27;;;;;;;1.20;1.20;;;15.50;99.90;;;;;;6235778;22;20473;-81
2023/09/18 03:31:00;;;;;;;2.73;2.60;;;15.50;99.90;;;;;;6203174;23;20836;-83
2023/09/18 03:33:28;;;;;;;0.77;0.77;;;15.50;99.90;;;;;;6228130;23;20420;-88
2023/09/18 03:35:57;;;;;;;1.17;1.17;;;15.50;99.90;;;;;;6230090;23;20381;-84
2023/09/18 03:38:25;;;;;;;4.60;4.20;;;15.50;99.90;;;;;;6197552;22;20457;-81
2023/09/18 03:43:29;;;;;;;2.90;2.70;;;15.50;99.90;;;;;;6176915;22;20475;-86
2023/09/18 03:51:35;;;;;;;1.70;1.60;;;15.50;99.90;;;;;;6211074;22;20449;-87
2023/09/18 03:54:02;;;;;;;1.77;1.67;;;15.50;99.90;;;;;;6227756;23;20406;-86
2023/09/18 03:56:31;;;;;;;1.53;1.43;;;15.40;99.90;;;;;;6230110;22;20414;-85
2023/09/18 03:59:01;;;;;;;1.97;1.80;;;15.40;99.90;;;;;;6228525;23;20433;-84
2023/09/18 04:01:30;;;;;;;5.10;4.83;;;15.40;99.90;;;;;;6169830;23;20426;-83
2023/09/18 04:03:58;;;;;;;2.60;2.23;;;15.40;99.90;;;;;;6137068;23;20449;-84
2023/09/18 04:06:25;;;;;;;1.13;1.13;;;15.30;99.90;;;;;;6208903;22;20461;-82
2023/09/18 04:08:52;;;;;;;3.13;2.13;;;15.30;99.90;;;;;;6237538;22;20463;-84
2023/09/18 04:11:26;;;;;;;1.27;1.27;;;15.30;99.90;;;;;;6173270;23;20454;-85
2023/09/18 04:13:53;;;;;;;2.00;1.93;;;15.30;99.90;;;;;;6196502;23;20452;-83
2023/09/18 04:16:20;;;;;;;1.50;0.93;;;15.50;99.90;;;;;;6200331;22;20445;-82
2023/09/18 04:18:47;;;;;;;1.47;1.37;;;15.30;99.90;;;;;;6193491;23;20502;-84
2023/09/18 04:21:18;;;;;;;1.30;1.00;;;15.20;99.90;;;;;;6166453;22;20468;-86
2023/09/18 04:24:01;;;;;;;2.00;1.90;;;15.20;99.90;;;;;;6230420;23;20386;-87
2023/09/18 04:26:30;;;;;;;0.90;0.90;;;15.30;99.90;;;;;;6208046;22;20459;-88
2023/09/18 04:28:58;;;;;;;4.83;3.80;;;15.30;99.90;;;;;;6205510;23;20441;-86
2023/09/18 04:34:10;;;;;;;0.63;0.63;;;15.20;99.90;;;;;;6226267;22;20456;-88
2023/09/18 04:36:37;;;;;;;1.67;1.57;;;15.20;99.90;;;;;;6229493;23;20405;-88
2023/09/18 04:39:05;;;;;;;1.30;1.30;;;15.20;99.90;;;;;;6229439;23;20464;-84
2023/09/18 04:41:33;;;;;;;2.60;2.50;;;15.20;99.90;;;;;;6172551;23;20457;-83
2023/09/18 04:46:35;;;;;;;2.40;2.30;;;15.20;99.90;;;;;;6208573;23;20633;-89
2023/09/18 04:49:03;;;;;;;3.87;3.57;;;15.20;99.90;;;;;;6233253;22;20394;-78
2023/09/18 04:51:34;;;;;;;4.53;2.47;;;15.20;99.90;;;;;;6186488;22;20430;-88
2023/09/18 04:56:55;;;;;;;2.47;2.30;;;15.20;99.90;;;;;;6194279;22;20475;-87
2023/09/18 04:59:22;;;;;;;3.37;3.20;;;15.30;99.90;;;;;;6227717;23;20469;-83
2023/09/18 05:01:49;;;;;;;0.60;0.60;;;15.30;99.90;;;;;;6209739;22;21196;-85
2023/09/18 05:04:18;;;;;;;0.80;0.80;;;15.30;99.90;;;;;;6166190;22;20608;-81
2023/09/18 05:06:45;;;;;;;3.50;3.20;;;15.50;99.90;;;;;;6232519;22;20413;-83
2023/09/18 05:11:48;;;;;;;2.23;2.13;;;15.60;99.90;;;;;;6202088;22;20441;-87
2023/09/18 05:14:16;;;;;;;1.73;1.63;;;15.70;99.90;;;;;;6153373;22;20429;-90
2023/09/18 05:19:24;;;;;;;2.23;2.03;;;15.80;99.90;;;;;;6213659;23;20436;-81
2023/09/18 05:21:52;;;;;;;1.10;1.10;;;15.90;99.90;;;;;;6228699;23;20386;-89
2023/09/18 05:24:26;;;;;;;1.90;1.80;;;16.00;99.90;;;;;;6230205;23;20394;-86
2023/09/18 05:29:25;;;;;;;1.83;1.73;;;16.10;99.90;;;;;;6169247;23;20404;-89
2023/09/18 05:31:54;;;;;;;2.30;2.20;;;16.00;99.90;;;;;;6141401;23;20400;-89
2023/09/18 05:34:22;;;;;;;0.90;0.90;;;16.40;99.90;;;;;;6171778;23;20442;-87
2023/09/18 05:36:49;;;;;;;0.80;0.80;;;16.20;99.90;;;;;;6149873;22;21967;-87
2023/09/18 05:39:17;;;;;;;1.80;1.60;;;16.50;99.90;;;;;;6207886;22;20580;-87
2023/09/18 05:41:44;;;;;;;2.03;1.90;;;16.70;99.90;;;;;;6222973;22;20438;-89
2023/09/18 05:44:11;;;;;;;3.33;3.13;;;16.90;99.90;;;;;;6220001;22;20633;-85
2023/09/18 05:46:38;;;;;;;1.53;1.47;;;17.10;99.90;;;;;;6184573;22;21277;-87
2023/09/18 05:51:42;;;;;;;1.57;1.47;;;17.30;99.90;;;;;;6194671;23;20458;-88
2023/09/18 05:56:44;;;;;;;1.30;1.30;;;17.40;99.90;;;;;;6187592;22;20446;-86
2023/09/18 06:01:48;;;;;;;4.67;3.20;;;17.50;99.90;;;;;;6224350;23;20436;-87
2023/09/18 06:04:16;;;;;;;1.60;1.50;;;17.60;99.90;;;;;;6217854;22;20454;-86
2023/09/18 06:09:21;;;;;;;0.60;0.60;;;17.70;99.90;;;;;;6169370;23;20402;-78
2023/09/18 06:17:06;;;;;;;1.50;1.40;;;18.10;99.90;;;;;;6175256;22;20468;-83
2023/09/18 06:19:33;;;;;;;1.23;1.23;;;18.40;99.90;;;;;;6221293;22;20437;-88
2023/09/18 06:22:00;;;;;;;0.90;0.90;;;18.50;99.90;;;;;;6186604;22;20625;-81
2023/09/18 06:24:28;;;;;;;2.53;2.40;;;18.80;99.90;;;;;;6202239;23;20386;-87
2023/09/18 06:26:55;;;;;;;2.20;1.07;;;18.90;99.90;;;;;;6205212;23;20436;-87
2023/09/18 06:29:22;;;;;;;3.17;2.93;;;19.10;99.90;;;;;;6186930;23;20433;-88
2023/09/18 06:31:50;;;;;;;2.03;1.30;;;19.20;99.90;;;;;;6224363;23;22262;-83
2023/09/18 06:36:52;;;;;;;1.53;1.47;;;19.70;99.90;;;;;;6231920;22;20489;-89
2023/09/18 06:39:22;;;;;;;1.57;1.47;;;19.70;99.90;;;;;;6233031;22;20373;-87
2023/09/18 06:41:48;;;;;;;2.30;1.97;;;20.10;99.90;;;;;;6221894;22;20499;-85
2023/09/18 06:46:52;;;;;;;1.20;1.20;;;20.40;99.90;;;;;;6180995;22;20444;-87
2023/09/18 06:49:19;;;;;;;2.10;1.97;;;21.30;99.90;;;;;;6231317;22;20445;-81
2023/09/18 06:51:46;;;;;;;3.03;2.83;;;21.60;99.90;;;;;;6229251;23;20428;-84
2023/09/18 06:54:14;;;;;;;3.00;2.53;;;21.70;99.90;;;;;;6227644;23;20440;-81
2023/09/18 06:56:41;;;;;;;2.10;2.00;;;21.80;99.90;;;;;;6231228;22;20402;-89
2023/09/18 06:59:08;;;;;;;0.97;0.97;;;22.40;99.90;;;;;;6209353;23;20376;-82
2023/09/18 07:01:35;;;;;;;1.90;1.80;;;23.10;99.90;;;;;;6221963;22;20453;-87
2023/09/18 07:04:04;;;;;;;1.97;1.87;;;23.50;99.90;;;;;;6235192;22;20396;-87
2023/09/18 07:06:32;;;;;;;1.40;1.30;;;24.00;99.90;;;;;;6227551;23;20461;-86
2023/09/18 07:08:59;;;;;;;4.57;4.20;;;23.50;99.90;;;;;;6229950;23;20371;-88
2023/09/18 07:11:26;;;;;;;1.20;1.20;;;23.90;99.90;;;;;;6146344;22;20615;-83
2023/09/18 07:13:55;;;;;;;1.50;1.40;;;24.80;99.90;;;;;;6227799;23;20371;-86
2023/09/18 07:16:22;;;;;;;2.27;2.03;;;24.20;99.90;;;;;;6179942;23;20424;-86
2023/09/18 07:18:49;;;;;;;1.10;1.10;;;24.20;99.90;;;;;;6206850;23;20390;-86
2023/09/18 07:21:23;;;;;;;4.07;3.77;;;24.20;99.90;;;;;;6233707;23;20360;-86
2023/09/18 07:23:51;;;;;;;1.00;1.00;;;25.10;99.90;;;;;;6230326;23;20382;-88
2023/09/18 07:26:18;;;;;;;1.30;1.30;;;25.50;99.90;;;;;;6208812;22;20416;-86
2023/09/18 07:28:45;;;;;;;2.53;2.33;;;25.70;99.90;;;;;;6231159;23;20432;-86
2023/09/18 07:34:00;;;;;;;1.90;1.77;;;24.90;99.90;;;;;;6112468;23;20590;-86
2023/09/18 07:36:27;;;;;;;21.73;3.93;;;26.00;99.90;;;;;;6111428;23;20578;-87
2023/09/18 07:38:56;;;;;;;1.87;1.77;;;25.10;99.90;;;;;;6084092;23;20372;-81
2023/09/18 07:41:23;;;;;;;1.63;1.53;;;25.20;99.90;;;;;;6176280;22;20494;-86
2023/09/18 07:43:51;;;;;;;1.30;1.30;;;25.50;99.90;;;;;;6233361;22;20380;-88
2023/09/18 07:46:19;;;;;;;1.67;1.60;;;25.90;99.90;;;;;;6220920;22;20494;-88
2023/09/18 07:48:46;;;;;;;1.40;1.30;;;26.00;99.90;;;;;;6232132;22;20372;-88
2023/09/18 07:51:15;;;;;;;6.00;2.13;;;27.00;99.90;;;;;;6204344;22;20748;-86
2023/09/18 07:53:43;;;;;;;3.10;2.90;;;27.20;99.90;;;;;;6233012;23;20369;-79
2023/09/18 07:56:10;;;;;;;2.37;2.20;;;27.10;99.90;;;;;;6232485;23;20700;-85
2023/09/18 07:58:38;;;;;;;1.00;1.00;;;27.50;99.90;;;;;;6230121;23;20390;-84
2023/09/18 08:03:41;;;;;;;2.57;2.47;;;27.30;99.90;;;;;;6168810;23;20487;-89
2023/09/18 08:06:08;;;;;;;1.17;1.17;;;26.40;99.90;;;;;;6212325;22;20460;-88
2023/09/18 08:08:44;;;;;;;2.00;1.90;;;27.10;99.90;;;;;;6210031;22;20441;-84
2023/09/18 08:11:11;;;;;;;1.10;1.10;;;27.30;99.90;;;;;;6208355;23;20433;-81
2023/09/18 08:13:38;;;;;;;2.80;2.60;;;27.10;99.90;;;;;;6204309;22;20397;-82
2023/09/18 08:16:06;;;;;;;1.63;1.53;;;27.10;99.90;;;;;;6173802;23;20734;-87
2023/09/18 08:18:34;;;;;;;2.03;1.93;;;26.90;99.90;;;;;;6231840;22;20410;-87
2023/09/18 08:21:01;;;;;;;2.57;2.47;;;26.60;99.90;;;;;;6235494;22;20402;-83
2023/09/18 08:23:29;;;;;;;1.77;1.67;;;26.40;99.90;;;;;;6233594;22;20377;-87
2023/09/18 08:25:57;;;;;;;2.80;2.60;;;26.50;99.90;;;;;;6235448;23;20376;-86
2023/09/18 08:31:06;;;;;;;2.73;2.53;;;27.30;99.90;;;;;;6227181;22;20419;-84
2023/09/18 08:33:34;;;;;;;1.53;1.43;;;26.50;99.90;;;;;;6237047;22;20451;-87
2023/09/18 08:36:01;;;;;;;4.30;2.70;;;26.60;99.90;;;;;;6233908;23;20402;-87
2023/09/18 08:38:31;;;;;;;2.07;1.97;;;26.70;99.90;;;;;;6207216;23;20412;-85
2023/09/18 08:40:59;;;;;;;1.37;1.37;;;26.50;99.90;;;;;;6214761;22;20372;-86
2023/09/18 08:46:02;;;;;;;2.20;2.07;;;26.70;99.90;;;;;;6192119;23;20416;-84
2023/09/18 08:48:34;;;;;;;1.57;1.47;;;27.20;99.90;;;;;;6162519;22;20784;-87
2023/09/18 08:51:07;;;;;;;2.10;2.00;;;27.20;99.90;;;;;;6236602;23;20569;-89
2023/09/18 08:53:36;;;;;;;3.43;3.23;;;27.10;99.90;;;;;;6198843;22;20458;-85
2023/09/18 08:58:45;;;;;;;1.30;1.30;;;27.70;99.90;;;;;;6172798;23;20533;-87
2023/09/18 09:01:19;;;;;;;3.93;3.73;;;28.10;99.90;;;;;;6211665;22;20442;-86
2023/09/18 09:03:46;;;;;;;2.63;2.53;;;27.70;99.90;;;;;;6211509;22;21430;-88
2023/09/18 09:08:59;;;;;;;2.60;1.87;;;28.00;99.90;;;;;;6173245;22;20458;-84
2023/09/18 09:11:29;;;;;;;1.40;1.40;;;28.50;99.90;;;;;;6208446;23;20492;-86
2023/09/18 09:14:17;;;;;;;1.70;1.60;;;27.70;99.90;;;;;;6233783;23;20365;-86
2023/09/18 09:16:50;;;;;;;2.30;2.20;;;27.40;99.90;;;;;;6193292;22;20440;-83
2023/09/18 09:22:00;;;;;;;2.73;2.60;;;28.00;99.90;;;;;;6211390;22;20504;-86
2023/09/18 09:27:04;;;;;;;1.63;1.53;;;28.00;99.90;;;;;;6217894;23;20488;-86
2023/09/18 09:29:32;;;;;;;2.20;2.10;;;27.90;99.90;;;;;;6213772;22;20425;-85
2023/09/18 09:32:19;;;;;;;1.80;1.70;;;27.50;99.90;;;;;;6205136;22;20491;-83
2023/09/18 09:34:46;;;;;;;3.47;3.27;;;27.40;99.90;;;;;;6206484;23;20355;-85
2023/09/18 09:39:50;;;;;;;1.63;1.53;;;27.50;99.90;;;;;;6180091;23;20441;-85
2023/09/18 09:42:28;;;;;;;1.83;1.73;;;27.70;99.90;;;;;;6154698;23;20425;-85
2023/09/18 09:45:03;;;;;;;3.17;2.97;;;27.80;99.90;;;;;;6176217;23;20347;-88
2023/09/18 09:50:10;;;;;;;1.80;1.70;;;27.60;99.90;;;;;;6201125;23;20426;-84
2023/09/18 09:55:28;;;;;;;1.70;1.60;;;27.40;99.90;;;;;;6204883;23;20530;-84
2023/09/18 09:58:01;;;;;;;1.13;1.13;;;27.70;99.90;;;;;;6179227;23;20437;-87
2023/09/18 10:00:36;;;;;;;2.37;2.27;;;27.80;99.90;;;;;;6235252;23;20425;-82
2023/09/18 10:03:04;;;;;;;1.70;1.60;;;27.90;99.90;;;;;;6236600;23;20399;-84
2023/09/18 10:05:35;;;;;;;2.13;2.03;;;27.60;99.90;;;;;;6234178;23;20385;-83
2023/09/18 10:08:08;;;;;;;2.27;2.13;;;27.40;99.90;;;;;;6211402;23;20395;-83
2023/09/18 10:13:40;;;;;;;1.93;1.83;;;27.60;99.90;;;;;;6235171;22;20505;-88
2023/09/18 10:22:05;;;;;;;1.70;1.60;;;28.00;99.90;;;;;;6177647;23;20474;-84
2023/09/18 10:24:37;;;;;;;3.67;3.47;;;27.80;99.90;;;;;;6172568;23;20365;-89
2023/09/18 10:27:05;;;;;;;1.40;1.40;;;27.60;99.90;;;;;;6173632;23;20623;-84
2023/09/18 10:29:34;;;;;;;2.17;2.07;;;27.80;99.90;;;;;;6201715;22;20407;-86
2023/09/18 10:32:07;;;;;;;1.70;1.60;;;28.10;99.90;;;;;;6234558;23;20425;-88
2023/09/18 10:34:37;;;;;;;2.20;2.10;;;28.00;99.10;;;;;;6233568;22;20392;-85
2023/09/18 10:37:09;;;;;;;2.03;1.90;;;28.20;98.80;;;;;;6232448;23;20409;-81
2023/09/18 10:39:39;;;;;;;2.17;2.03;;;28.00;98.70;;;;;;6230424;23;20414;-84
2023/09/18 10:42:08;;;;;;;2.33;2.20;;;27.90;98.30;;;;;;6230272;23;20365;-86
2023/09/18 10:44:39;;;;;;;1.77;1.70;;;27.60;98.90;;;;;;6231781;23;20427;-86
2023/09/18 10:47:10;;;;;;;1.50;1.43;;;27.50;98.20;;;;;;6206404;23;20345;-85
2023/09/18 10:49:37;;;;;;;4.13;3.90;;;27.80;98.80;;;;;;6234871;23;20348;-86
2023/09/18 10:52:04;;;;;;;1.73;1.63;;;28.00;98.70;;;;;;6232125;23;20408;-82
2023/09/18 10:54:32;;;;;;;2.30;2.20;;;27.90;98.30;;;;;;6230274;23;20392;-83
2023/09/18 10:57:02;;;;;;;1.87;1.77;;;27.70;97.80;;;;;;6166198;22;20435;-88
2023/09/18 10:59:31;;;;;;;3.83;3.63;;;28.00;98.50;;;;;;6173845;23;20384;-86
2023/09/18 11:02:07;;;;;;;1.90;1.80;;;28.00;98.20;;;;;;6203406;23;20383;-85
2023/09/18 11:04:40;;;;;;;2.07;1.97;;;28.10;97.80;;;;;;6179849;23;20449;-86
2023/09/18 11:07:09;;;;;;;1.30;1.30;;;28.00;97.40;;;;;;6198940;22;21415;-88
2023/09/18 11:12:18;;;;;;;1.60;1.50;;;28.00;97.80;;;;;;6185797;22;20419;-84
2023/09/18 11:20:04;;;;;;;1.10;1.10;;;28.10;98.00;;;;;;6188830;23;20427;-85
2023/09/18 11:22:32;;;;;;;2.63;2.50;;;28.30;97.60;;;;;;6235375;22;20377;-86
2023/09/18 11:27:57;;;;;;;1.63;1.53;;;28.00;96.90;;;;;;6229737;22;20427;-87
2023/09/18 11:30:28;;;;;;;3.20;2.90;;;28.00;97.00;;;;;;6232336;23;20394;-86
2023/09/18 11:32:57;;;;;;;1.50;1.50;;;27.90;97.00;;;;;;6233527;23;20409;-84
2023/09/18 11:35:26;;;;;;;2.57;2.37;;;28.00;96.90;;;;;;6232697;23;20386;-82
2023/09/18 11:38:08;;;;;;;1.20;1.20;;;28.10;96.90;;;;;;6210736;22;20424;-83
2023/09/18 11:40:38;;;;;;;2.43;2.23;;;28.30;96.80;;;;;;6233954;23;20415;-86
2023/09/18 11:43:26;;;;;;;1.10;1.10;;;28.20;96.30;;;;;;6164306;23;20443;-84
2023/09/18 11:45:55;;;;;;;1.50;1.40;;;28.10;96.20;;;;;;6208001;23;20412;-83
2023/09/18 11:48:27;;;;;;;2.63;2.47;;;28.20;96.70;;;;;;6207479;23;20450;-82
2023/09/18 11:50:59;;;;;;;2.40;1.57;;;28.20;95.50;;;;;;6231827;22;20427;-86
2023/09/18 11:53:27;;;;;;;2.30;2.20;;;28.20;94.80;;;;;;6235865;22;20405;-85
2023/09/18 11:58:30;;;;;;;3.37;2.20;;;28.50;95.40;;;;;;6199358;23;20491;-86
2023/09/18 12:01:12;;;;;;;1.60;1.50;;;28.50;94.70;;;;;;6233388;23;20433;-87
2023/09/18 12:03:39;;;;;;;1.07;1.07;;;28.50;94.50;;;;;;6234071;22;20420;-89
2023/09/18 12:06:09;;;;;;;2.40;2.20;;;28.60;93.20;;;;;;6239680;23;20396;-88
2023/09/18 12:08:36;;;;;;;1.87;1.77;;;28.60;93.80;;;;;;6236454;22;20843;-88
2023/09/18 12:16:21;;;;;;;2.20;2.10;;;28.60;93.10;;;;;;6166980;22;20433;-85
2023/09/18 12:18:49;;;;;;;1.20;1.20;;;28.60;92.00;;;;;;6219785;22;20481;-86
2023/09/18 12:21:17;;;;;;;1.03;1.03;;;28.80;92.80;;;;;;6159463;22;20455;-82
2023/09/18 12:23:46;;;;;;;2.67;2.57;;;28.70;91.70;;;;;;6214229;23;20420;-84
2023/09/18 12:26:19;;;;;;;1.50;1.40;;;28.60;92.50;;;;;;6240202;22;20376;-83
2023/09/18 12:28:47;;;;;;;1.17;1.17;;;28.50;91.90;;;;;;6241035;22;20365;-82
2023/09/18 12:31:16;;;;;;;1.10;1.10;;;28.50;91.20;;;;;;6216491;22;20515;-88
2023/09/18 12:33:46;;;;;;;1.40;1.40;;;28.50;92.00;;;;;;6230600;22;20466;-83
2023/09/18 12:39:06;;;;;;;1.70;1.60;;;28.50;92.70;;;;;;6121881;23;20355;-84
2023/09/18 12:41:37;;;;;;;1.47;1.43;;;28.40;92.20;;;;;;6120197;23;20393;-86
2023/09/18 12:44:06;;;;;;;1.47;1.37;;;28.20;92.00;;;;;;6113940;23;20527;-86
2023/09/18 12:46:41;;;;;;;1.10;1.10;;;28.10;91.90;;;;;;6114180;23;20380;-85
2023/09/18 12:49:25;;;;;;;3.50;3.20;;;28.00;92.20;;;;;;6131051;23;20433;-87
2023/09/18 12:52:00;;;;;;;1.37;1.33;;;28.00;91.90;;;;;;6142918;23;20414;-83
2023/09/18 12:54:49;;;;;;;1.30;1.20;;;27.90;92.30;;;;;;6148354;23;20358;-84
2023/09/18 12:57:17;;;;;;;1.10;1.10;;;27.90;92.70;;;;;;6149981;23;20383;-85
2023/09/18 12:59:44;;;;;;;1.40;1.30;;;27.90;91.80;;;;;;6175214;23;20432;-86
2023/09/18 13:12:55;;;;;;;3.23;3.03;;;27.80;92.30;;;;;;5155416;27;20552;-86
2023/09/18 13:15:33;;;;;;;1.70;1.60;;;27.70;93.30;;;;;;5148762;27;20440;-86
2023/09/18 13:18:12;;;;;;;3.03;1.30;;;27.70;93.30;;;;;;5152417;27;20443;-81
2023/09/18 13:23:16;;;;;;;1.63;1.20;;;27.80;93.40;;;;;;5091945;28;20456;-84
2023/09/18 13:28:34;;;;;;;1.00;1.00;;;27.80;93.60;;;;;;5534046;23;20546;-87
2023/09/18 13:31:07;;;;;;;1.17;1.17;;;27.90;93.80;;;;;;5032298;28;20650;-87
2023/09/18 13:33:40;;;;;;;1.73;1.63;;;27.80;93.50;;;;;;5037812;28;20416;-88
2023/09/18 13:36:10;;;;;;;2.50;2.30;;;27.90;93.10;;;;;;5031743;28;20514;-89
2023/09/18 13:38:52;;;;;;;3.73;3.43;;;27.90;93.10;;;;;;5092253;23;20571;-90
2023/09/18 13:41:19;;;;;;;2.00;1.90;;;28.00;93.60;;;;;;5035102;28;20505;-83
2023/09/18 13:43:55;;;;;;;1.30;1.30;;;27.90;93.80;;;;;;5306899;23;20647;-82
2023/09/18 13:46:24;;;;;;;0.90;0.90;;;27.90;93.30;;;;;;5083203;28;20668;-86
2023/09/18 13:48:52;;;;;;;1.00;1.00;;;27.70;93.10;;;;;;5071347;28;20470;-86
2023/09/18 13:51:29;;;;;;;1.47;1.37;;;27.60;93.80;;;;;;5084271;28;20478;-87
2023/09/18 13:54:07;;;;;;;1.97;1.87;;;27.50;94.20;;;;;;5075830;28;20404;-88
2023/09/18 13:56:37;;;;;;;2.40;2.20;;;27.50;94.00;;;;;;5164522;22;20462;-88
2023/09/18 13:59:07;;;;;;;2.40;2.20;;;27.50;93.40;;;;;;5075477;28;20407;-88
2023/09/18 14:04:26;;;;;;;1.30;1.20;;;27.40;94.10;;;;;;5436892;22;20459;-82
2023/09/18 14:06:54;;;;;;;1.00;1.00;;;27.40;93.90;;;;;;5064541;28;20404;-85
2023/09/18 14:09:21;;;;;;;2.20;2.07;;;27.30;94.00;;;;;;5077251;28;20419;-87
2023/09/18 14:11:48;;;;;;;1.13;1.13;;;27.20;94.80;;;;;;5081406;28;20888;-87
2023/09/18 14:14:18;;;;;;;1.00;1.00;;;27.20;94.70;;;;;;5067311;28;20484;-87
2023/09/18 14:19:34;;;;;;;1.23;1.23;;;27.30;95.20;;;;;;5255589;22;20535;-83
2023/09/18 14:22:10;;;;;;;1.60;1.50;;;27.30;95.10;;;;;;5126690;23;20484;-89
2023/09/18 14:24:37;;;;;;;1.20;1.20;;;27.50;95.60;;;;;;5178941;23;20569;-86
2023/09/18 14:32:26;;;;;;;1.20;1.20;;;27.70;95.50;;;;;;5676534;23;20450;-90
2023/09/18 14:37:29;;;;;;;0.95;0.95;;;28.00;95.00;;;;;;5682333;22;20496;-83
2023/09/18 14:42:25;;;;;;;1.67;1.57;;;28.00;94.30;;;;;;5011347;28;20472;-84
2023/09/18 14:47:29;;;;;;;1.40;1.40;;;28.00;94.60;;;;;;5047392;28;20439;-81
2023/09/18 14:50:01;;;;;;;2.93;2.73;;;28.10;94.30;;;;;;5048265;28;20543;-86
2023/09/18 14:52:32;;;;;;;3.37;2.20;;;27.80;94.60;;;;;;5047317;28;20503;-82
2023/09/18 14:55:00;;;;;;;1.73;1.63;;;27.70;94.30;;;;;;5601772;22;20777;-90
2023/09/18 14:57:37;;;;;;;0.90;0.90;;;27.80;94.30;;;;;;5269426;23;20476;-89
2023/09/18 15:00:12;;;;;;;1.30;1.20;;;27.70;94.70;;;;;;5026822;28;20442;-88
2023/09/18 15:02:49;;;;;;;1.30;1.30;;;27.60;94.10;;;;;;5028396;28;20500;-88
2023/09/18 15:05:19;;;;;;;2.90;2.70;;;27.50;94.60;;;;;;5026019;28;20468;-85
2023/09/18 15:07:46;;;;;;;1.50;1.27;;;27.40;93.90;;;;;;5021614;28;20474;-83
2023/09/18 15:10:15;;;;;;;1.20;1.20;;;27.40;94.50;;;;;;5020537;28;20444;-86
2023/09/18 15:15:26;;;;;;;1.57;1.50;;;27.10;95.30;;;;;;5228974;23;20496;-87
2023/09/18 15:17:53;;;;;;;2.40;2.30;;;27.00;95.10;;;;;;5282732;22;20840;-84
2023/09/18 15:20:26;;;;;;;2.90;1.57;;;26.90;95.20;;;;;;5426898;22;20456;-89
2023/09/18 15:22:56;;;;;;;1.53;1.43;;;26.90;95.20;;;;;;5026679;28;20461;-87
2023/09/18 15:25:24;;;;;;;1.77;1.67;;;26.80;95.00;;;;;;5027641;28;20422;-89
2023/09/18 15:27:54;;;;;;;5.63;3.70;;;26.80;95.50;;;;;;5023654;28;20492;-87
2023/09/18 15:30:24;;;;;;;2.63;2.53;;;26.70;95.40;;;;;;5027917;28;20775;-88
2023/09/18 15:32:54;;;;;;;1.47;1.10;;;26.50;96.00;;;;;;5031005;28;20414;-92
2023/09/18 15:35:27;;;;;;;1.20;1.20;;;26.50;96.10;;;;;;5141137;23;20494;-89
2023/09/18 15:37:54;;;;;;;1.70;1.60;;;26.60;96.00;;;;;;5038287;28;20482;-85
2023/09/18 15:40:23;;;;;;;2.63;2.13;;;26.40;96.70;;;;;;5259560;23;20525;-87